New Richland, Minnesota
Current Conditions -  °F | °C
As of 12:15 PM on Wednesday 28 Jan 2015 (Local Time) from KACQ Reporting Station
Haze Haze  
Wind Chill: 21°   Ceiling: 500
Heat Index: 32°   Visibility: 2.5mi
Dew Point: 30°   Wind: 17mph
Humidity: 93%   Direction: 140°SE
Pressure: 29.89"   Gusts: 22mph
Location:  43.89°N, 93.49°W
Report Text: KACQ 281815Z AUTO 14015G19KT 2 1/2SM BR OVC005 00/M01 A2989 RMK AO2
Loading
Personal Weather Stations






























Interactive Weather Map New forecast layout! Learn more

10-Day Weather Forecast

Advertisements
Track Severe Weather on mobile